Ninilchik, AK (99639)

11:11 AM AKDT on August 03, 2015 (GMT -0800)
Crane's Rest B | | Change Station
CLOSE
Current Station
Personal Weather Station
Location: Homer, AK
Elevation: 282 ft
Nearby Weather Stations

Elev 282 ft 59.70 °N, 151.37 °W | Updated 10 minutes ago

Partly Cloudy
Partly Cloudy
71.4 °F
Feels Like 77 °F
N
2.2
Wind Variable Wind from ENE

Today
High -- | Low -- °F
--% Chance of Precip.
Yesterday
High -- | Low -- °F
Precip. -- in
5:52 AM 10:31 PM
Waning Gibbous, 85% visible
Pressure 30.12 in
Visibility 10.0 miles
Clouds Few 25000 ft
Heat Index 77 °F
Dew Point 53 °F
Humidity 52%
Rainfall 0.00 in
Snow Depth Not available.
UV 4 out of 12
Pollen Not available.
Air Quality Not available.
Flu Activity Not available.
METAR PAHO 031853Z 19005KT 10SM FEW250 16/10 A3011 RMK AO2 SLP198 T01610100

More Conditions Fewer Conditions

Pressure 30.12 in
Visibility 10.0 miles
Clouds Few 25000 ft
Heat Index 77 °F
Dew Point 53 °F
Humidity 52%
Rainfall 0.00 in
Snow Depth Not available.
UV 4 out of 12
Pollen Not available.
Air Quality Not available.
Flu Activity Not available.
METAR PAHO 031853Z 19005KT 10SM FEW250 16/10 A3011 RMK AO2 SLP198 T01610100

More Conditions Fewer Conditions

10-Day Weather Forecast

×

Almanac

Astronomy

Aug. 03, 2015 Rise Set
Actual Time
Civil Twilight
Nautical Twilight
Astronomical Twilight
Moon
Length of Visible Light
Length of Day
Tomorrow will be .
, % of the Moon is Illuminated

Today's Extremes

State Highs State Lows

Community

WunderPhotos

Upload Photos

1,843,707 photos uploaded!

WunderBlogs® & News

Nearby

Air Quality

  Air Quality AQ Index Pollutant
Not available.

Snow Depth

Station Depth Elevation

Earthquake Activity

City Distance Mag. Time & Date
Minimum magnitude displayed is 2.5.

Coastal Water Temperatures

Place Temperature

Stations

Nearby Weather Stations

Station Location Temp. Windchill Dew Point Humidity Wind Precip. Elev Updated Type